Terminal Aerodrome Forecast
Issued by NWS Jackson, KY

Home | Current Version | Previous Version | Text Only | Print | Product List | Glossary On
Versions: 1 2 3 4 5 6 7 8 9 10 11 12 13 14 15 16 17 18 19 20 21 22 23 24
000
FTUS43 KJKL 221138
TAFLOZ
TAF
KLOZ 221138Z 2212/2312 05007KT P6SM SHRA VCTS OVC010CB
     FM221900 05009KT 4SM SHRA OVC010
     FM230500 05006KT 5SM SHRA OVC008=

USA.gov is the U.S. government's official web portal to all federal, state and local government web resources and services.